createdAt,value
2018-11-07T00:00:56.567Z,100631.52
2018-11-07T00:03:25.305Z,100622.69
2018-11-07T00:05:54.030Z,100625.42
2018-11-07T00:08:23.000Z,100627.17
2018-11-07T00:10:51.931Z,100629.21
2018-11-07T00:13:21.032Z,100635.72
2018-11-07T00:15:49.923Z,100630.15
2018-11-07T00:18:18.805Z,100634.48
2018-11-07T00:20:47.562Z,100632.49
2018-11-07T00:23:16.229Z,100635.41
2018-11-07T00:25:45.490Z,100641.17
2018-11-07T00:28:14.415Z,100634.30
2018-11-07T00:30:43.320Z,100643.25
2018-11-07T00:33:11.966Z,100639.45
2018-11-07T00:35:40.710Z,100636.36
2018-11-07T00:38:09.447Z,100640.23
2018-11-07T00:40:38.824Z,100634.46
2018-11-07T00:43:07.568Z,100638.20
2018-11-07T00:45:36.214Z,100640.61
2018-11-07T00:48:04.917Z,100640.09
2018-11-07T00:50:34.057Z,100643.16
2018-11-07T00:53:02.850Z,100640.56
2018-11-07T00:55:31.662Z,100639.74
2018-11-07T00:58:00.523Z,100642.24
2018-11-07T01:00:29.221Z,100644.73
2018-11-07T01:02:58.423Z,100645.01
2018-11-07T01:05:27.182Z,100655.33
2018-11-07T01:07:55.851Z,100651.77
2018-11-07T01:10:24.698Z,100639.02
2018-11-07T01:12:53.784Z,100638.50
2018-11-07T01:15:22.543Z,100640.70
2018-11-07T01:17:51.329Z,100633.28
2018-11-07T01:20:20.282Z,100636.28
2018-11-07T01:22:48.840Z,100636.58
2018-11-07T01:25:17.508Z,100626.75
2018-11-07T01:27:46.193Z,100615.30
2018-11-07T01:30:15.263Z,100612.05
2018-11-07T01:32:43.874Z,100611.23
2018-11-07T01:35:13.178Z,100608.20
2018-11-07T01:37:42.058Z,100603.79
2018-11-07T01:40:12.919Z,100602.42
2018-11-07T01:42:41.955Z,100594.49
2018-11-07T01:45:11.537Z,100592.58
2018-11-07T01:47:40.401Z,100596.95
2018-11-07T01:50:11.142Z,100592.47
2018-11-07T01:52:40.065Z,100600.20
2018-11-07T01:55:09.323Z,100597.52
2018-11-07T01:57:38.419Z,100603.22
2018-11-07T02:00:09.682Z,100598.83
2018-11-07T02:02:39.675Z,100586.02
2018-11-07T02:05:09.043Z,100588.51
2018-11-07T02:07:37.782Z,100587.45
2018-11-07T02:10:07.756Z,100580.11
2018-11-07T02:12:36.610Z,100576.32
2018-11-07T02:15:05.900Z,100582.36
2018-11-07T02:17:34.694Z,100593.55
2018-11-07T02:20:03.450Z,100583.99
2018-11-07T02:22:32.255Z,100585.92
2018-11-07T02:25:00.881Z,100582.11
2018-11-07T02:27:30.341Z,100583.48
2018-11-07T02:29:59.266Z,100581.56
2018-11-07T02:32:28.188Z,100580.19
2018-11-07T02:34:57.011Z,100581.58
2018-11-07T02:37:26.110Z,100581.02
2018-11-07T02:39:54.879Z,100592.47
2018-11-07T02:42:23.822Z,100592.73
2018-11-07T02:44:52.971Z,100582.91
2018-11-07T02:47:21.748Z,100583.73
2018-11-07T02:49:50.539Z,100584.30
2018-11-07T02:52:19.348Z,100581.31
2018-11-07T02:54:48.149Z,100575.04
2018-11-07T02:57:17.235Z,100571.50
2018-11-07T02:59:46.533Z,100572.56
2018-11-07T03:02:15.616Z,100567.39
2018-11-07T03:04:44.391Z,100570.39
2018-11-07T03:07:13.205Z,100569.03
2018-11-07T03:09:41.924Z,100575.29
2018-11-07T03:12:10.769Z,100578.28
2018-11-07T03:14:39.663Z,100569.02
2018-11-07T03:17:08.499Z,100571.47
2018-11-07T03:19:37.298Z,100571.43
2018-11-07T03:22:06.390Z,100565.67
2018-11-07T03:24:35.032Z,100564.84
2018-11-07T03:27:03.922Z,100572.22
2018-11-07T03:29:32.683Z,100573.82
2018-11-07T03:32:01.437Z,100574.92
2018-11-07T03:34:30.245Z,100581.23
2018-11-07T03:36:59.276Z,100571.96
2018-11-07T03:39:28.055Z,100574.98
2018-11-07T03:41:57.047Z,100573.95
2018-11-07T03:44:25.926Z,100571.46
2018-11-07T03:46:54.743Z,100567.09
2018-11-07T03:49:23.369Z,100565.99
2018-11-07T03:51:52.255Z,100568.72
2018-11-07T03:54:20.927Z,100561.34
2018-11-07T03:56:49.713Z,100568.76
2018-11-07T03:59:18.548Z,100562.20
2018-11-07T04:01:47.363Z,100567.39
2018-11-07T04:04:16.461Z,100574.47
2018-11-07T04:06:45.337Z,100573.40
2018-11-07T04:09:14.741Z,100578.85
2018-11-07T04:11:44.216Z,100568.75
2018-11-07T04:14:13.309Z,100563.84
2018-11-07T04:16:42.031Z,100559.19
2018-11-07T04:19:10.819Z,100569.02
2018-11-07T04:21:39.976Z,100565.75
2018-11-07T04:24:08.800Z,100565.46
2018-11-07T04:26:38.774Z,100567.11
2018-11-07T04:29:07.586Z,100577.17
2018-11-07T04:31:36.387Z,100576.34
2018-11-07T04:34:05.179Z,100576.35
2018-11-07T04:36:33.975Z,100579.91
2018-11-07T04:39:02.924Z,100575.81
2018-11-07T04:41:31.666Z,100578.00
2018-11-07T04:44:00.426Z,100578.81
2018-11-07T04:46:29.437Z,100577.98
2018-11-07T04:48:58.126Z,100578.52
2018-11-07T04:51:26.898Z,100577.69
2018-11-07T04:53:55.579Z,100583.14
2018-11-07T04:56:24.296Z,100585.03
2018-11-07T04:58:53.074Z,100581.79
2018-11-07T05:04:18.029Z,100590.50
2018-11-07T05:06:47.028Z,100583.98
2018-11-07T05:09:16.252Z,100584.52
2018-11-07T05:11:45.774Z,100583.14
2018-11-07T05:14:15.271Z,100578.83
2018-11-07T05:16:44.648Z,100594.13
2018-11-07T05:19:14.696Z,100584.81
2018-11-07T05:21:44.234Z,100588.67
2018-11-07T05:24:13.461Z,100602.28
2018-11-07T05:26:42.971Z,100594.94
2018-11-07T05:29:12.247Z,100596.55
2018-11-07T05:31:42.194Z,100590.00
2018-11-07T05:34:12.392Z,100602.31
2018-11-07T05:36:42.933Z,100607.47
2018-11-07T05:39:12.392Z,100607.47
2018-11-07T05:41:42.012Z,100602.83
2018-11-07T05:44:11.435Z,100613.17
2018-11-07T05:46:45.021Z,100618.56
2018-11-07T05:49:15.519Z,100612.81
2018-11-07T05:51:44.907Z,100613.94
2018-11-07T05:54:14.511Z,100622.36
2018-11-07T05:56:44.586Z,100625.56
2018-11-07T05:59:13.996Z,100622.62
2018-11-07T06:01:43.327Z,100628.30
2018-11-07T06:04:12.576Z,100622.19
2018-11-07T06:06:41.695Z,100621.89
2018-11-07T06:09:10.783Z,100620.85
2018-11-07T06:11:40.020Z,100628.45
2018-11-07T06:14:09.430Z,100632.02
2018-11-07T06:16:38.635Z,100635.25
2018-11-07T06:19:07.974Z,100644.14
2018-11-07T06:21:37.295Z,100642.00
2018-11-07T06:24:06.667Z,100623.78
2018-11-07T06:26:35.799Z,100642.34
2018-11-07T06:29:05.124Z,100650.22
2018-11-07T06:31:34.511Z,100642.28
2018-11-07T06:34:03.724Z,100649.69
2018-11-07T06:36:33.235Z,100646.45
2018-11-07T06:39:02.527Z,100647.51
2018-11-07T06:41:31.924Z,100645.62
2018-11-07T06:44:01.091Z,100644.58
2018-11-07T06:46:30.327Z,100654.11
2018-11-07T06:48:59.395Z,100656.56
2018-11-07T06:51:28.831Z,100657.64
2018-11-07T06:53:58.252Z,100655.70
2018-11-07T06:56:27.411Z,100656.03
2018-11-07T06:58:56.621Z,100657.37
2018-11-07T07:01:25.930Z,100653.04
2018-11-07T07:03:55.086Z,100662.81
2018-11-07T07:06:24.299Z,100662.02
2018-11-07T07:08:53.716Z,100665.30
2018-11-07T07:11:23.153Z,100668.31
2018-11-07T07:13:52.682Z,100669.31
2018-11-07T07:16:21.958Z,100670.38
2018-11-07T07:18:51.093Z,100668.50
2018-11-07T07:21:20.310Z,100662.14
2018-11-07T07:23:49.593Z,100676.42
2018-11-07T07:26:18.799Z,100678.59
2018-11-07T07:28:47.895Z,100680.11
2018-11-07T07:31:17.303Z,100675.44
2018-11-07T07:33:46.661Z,100674.56
2018-11-07T07:36:15.967Z,100683.56
2018-11-07T07:38:45.268Z,100677.48
2018-11-07T07:41:14.309Z,100681.84
2018-11-07T07:43:43.485Z,100678.77
2018-11-07T07:46:12.707Z,100683.63
2018-11-07T07:48:41.851Z,100679.78
2018-11-07T07:51:11.088Z,100680.81
2018-11-07T07:53:40.130Z,100689.80
2018-11-07T07:56:09.384Z,100686.48
2018-11-07T07:58:38.470Z,100688.36
2018-11-07T08:01:07.705Z,100690.78
2018-11-07T08:03:40.488Z,100685.49
2018-11-07T08:06:09.770Z,100687.87
2018-11-07T08:08:39.062Z,100689.20
2018-11-07T08:11:08.317Z,100691.02
2018-11-07T08:13:37.624Z,100690.69
2018-11-07T08:16:06.959Z,100690.00
2018-11-07T08:18:36.020Z,100690.48
2018-11-07T08:21:05.229Z,100682.70
2018-11-07T08:23:34.236Z,100688.38
2018-11-07T08:26:03.475Z,100693.25
2018-11-07T08:28:32.594Z,100697.58
2018-11-07T08:31:01.959Z,100697.64
2018-11-07T08:33:31.220Z,100700.58
2018-11-07T08:36:00.452Z,100700.73
2018-11-07T08:38:29.895Z,100705.77
2018-11-07T08:40:59.159Z,100710.15
2018-11-07T08:43:28.302Z,100712.19
2018-11-07T08:45:57.556Z,100719.40
2018-11-07T08:48:26.736Z,100716.59
2018-11-07T08:50:56.225Z,100715.41
2018-11-07T08:53:25.335Z,100710.25
2018-11-07T08:55:54.468Z,100711.69
2018-11-07T08:58:24.746Z,100706.75
2018-11-07T09:00:53.964Z,100720.50
2018-11-07T09:03:23.154Z,100718.59
2018-11-07T09:05:52.624Z,100724.45
2018-11-07T09:08:22.051Z,100724.57
2018-11-07T09:10:51.279Z,100723.40
2018-11-07T09:13:20.244Z,100719.28
2018-11-07T09:15:49.545Z,100720.56
2018-11-07T09:18:18.830Z,100715.50
2018-11-07T09:20:48.054Z,100722.81
2018-11-07T09:23:17.052Z,100725.04
2018-11-07T09:25:46.247Z,100731.72
2018-11-07T09:28:15.220Z,100735.16
2018-11-07T09:30:44.528Z,100747.69
2018-11-07T09:33:13.819Z,100739.50
2018-11-07T09:35:43.056Z,100737.95
2018-11-07T09:38:12.121Z,100748.11
2018-11-07T09:40:41.318Z,100741.08
2018-11-07T09:43:10.515Z,100745.13
2018-11-07T09:45:39.930Z,100741.75
2018-11-07T09:48:09.249Z,100738.06
2018-11-07T09:50:38.301Z,100740.98
2018-11-07T09:53:07.586Z,100741.93
2018-11-07T09:55:36.907Z,100743.19
2018-11-07T09:58:06.302Z,100747.16
2018-11-07T10:00:35.430Z,100745.87
2018-11-07T10:03:04.902Z,100744.08
2018-11-07T10:05:34.144Z,100743.31
2018-11-07T10:08:03.163Z,100750.70
2018-11-07T10:10:32.434Z,100754.13
2018-11-07T10:13:01.581Z,100754.84
2018-11-07T10:15:30.831Z,100764.30
2018-11-07T10:17:59.746Z,100762.36
2018-11-07T10:20:29.039Z,100762.13
2018-11-07T10:22:58.226Z,100762.09
2018-11-07T10:25:27.498Z,100748.08
2018-11-07T10:27:56.960Z,100762.22
2018-11-07T10:30:26.003Z,100753.68
2018-11-07T10:32:55.269Z,100747.04
2018-11-07T10:35:24.595Z,100745.91
2018-11-07T10:37:54.094Z,100742.77
2018-11-07T10:40:24.489Z,100746.66
2018-11-07T10:42:53.668Z,100739.20
2018-11-07T10:45:22.968Z,100747.14
2018-11-07T10:47:52.353Z,100737.63
2018-11-07T10:50:22.003Z,100742.72
2018-11-07T10:52:51.624Z,100746.33
2018-11-07T10:55:20.798Z,100750.02
2018-11-07T10:57:50.132Z,100755.39
2018-11-07T11:00:24.654Z,100754.09
2018-11-07T11:03:31.488Z,100761.52
2018-11-07T11:06:00.858Z,100754.47
2018-11-07T11:08:30.011Z,100753.25
2018-11-07T11:10:59.754Z,100757.95
2018-11-07T11:13:29.031Z,100759.58
2018-11-07T11:15:58.388Z,100757.12
2018-11-07T11:18:27.746Z,100758.73
2018-11-07T11:20:57.103Z,100759.89
2018-11-07T11:23:26.235Z,100754.36
2018-11-07T11:25:55.494Z,100754.86
2018-11-07T11:28:24.658Z,100745.34
2018-11-07T11:30:54.049Z,100749.95
2018-11-07T11:33:23.160Z,100762.63
2018-11-07T11:35:52.352Z,100757.20
2018-11-07T11:38:21.805Z,100751.42
2018-11-07T11:40:51.198Z,100762.36
2018-11-07T11:43:20.590Z,100781.72
2018-11-07T11:45:49.851Z,100774.58
2018-11-07T11:48:19.020Z,100776.88
2018-11-07T11:50:48.256Z,100771.17
2018-11-07T11:53:17.318Z,100774.08
2018-11-07T11:55:46.359Z,100771.22
2018-11-07T11:58:15.500Z,100776.83
2018-11-07T12:00:44.956Z,100770.84
2018-11-07T12:03:14.248Z,100767.97
2018-11-07T12:05:43.324Z,100768.50
2018-11-07T12:08:12.610Z,100773.09
2018-11-07T12:10:41.964Z,100773.89
2018-11-07T12:13:11.434Z,100772.35
2018-11-07T12:15:40.753Z,100771.41
2018-11-07T12:18:10.023Z,100763.55
2018-11-07T12:20:39.248Z,100765.42
2018-11-07T12:23:08.651Z,100761.80
2018-11-07T12:25:37.928Z,100762.59
2018-11-07T12:28:06.987Z,100774.97
2018-11-07T12:30:36.134Z,100763.09
2018-11-07T12:33:05.292Z,100760.03
2018-11-07T12:35:34.636Z,100763.44
2018-11-07T12:38:03.801Z,100761.77
2018-11-07T12:40:33.015Z,100767.87
2018-11-07T12:43:02.068Z,100762.53
2018-11-07T12:45:31.319Z,100764.14
2018-11-07T12:48:00.591Z,100764.33
2018-11-07T12:50:30.005Z,100763.89
2018-11-07T12:52:59.098Z,100771.47
2018-11-07T12:55:28.308Z,100770.75
2018-11-07T12:57:57.583Z,100766.39
2018-11-07T13:00:27.567Z,100765.44
2018-11-07T13:02:56.828Z,100769.30
2018-11-07T13:05:26.902Z,100773.05
2018-11-07T13:07:57.246Z,100778.95
2018-11-07T13:10:26.487Z,100779.67
2018-11-07T13:12:55.669Z,100776.13
2018-11-07T13:15:24.875Z,100770.84
2018-11-07T13:17:54.444Z,100779.41
2018-11-07T13:20:25.480Z,100775.95
2018-11-07T13:22:55.170Z,100773.80
2018-11-07T13:25:25.311Z,100767.45
2018-11-07T13:27:54.435Z,100772.42
2018-11-07T13:30:23.896Z,100772.81
2018-11-07T13:32:53.025Z,100781.64
2018-11-07T13:35:22.295Z,100788.72
2018-11-07T13:37:52.329Z,100786.13
2018-11-07T13:40:25.381Z,100785.97
2018-11-07T13:42:54.634Z,100781.58
2018-11-07T13:45:24.221Z,100777.25
2018-11-07T13:47:54.422Z,100782.05
2018-11-07T13:50:23.672Z,100785.48
2018-11-07T13:52:52.912Z,100790.88
2018-11-07T13:55:22.072Z,100796.70
2018-11-07T13:57:51.349Z,100796.63
2018-11-07T14:00:22.721Z,100798.42
2018-11-07T14:02:52.560Z,100797.70
2018-11-07T14:05:21.895Z,100803.80
2018-11-07T14:07:51.101Z,100797.61
2018-11-07T14:10:23.346Z,100811.06
2018-11-07T14:12:52.923Z,100804.88
2018-11-07T14:15:22.309Z,100805.45
2018-11-07T14:17:51.768Z,100811.07
2018-11-07T14:20:20.925Z,100807.23
2018-11-07T14:22:50.092Z,100806.20
2018-11-07T14:25:19.535Z,100808.20
2018-11-07T14:27:48.732Z,100816.02
2018-11-07T14:30:19.100Z,100815.46
2018-11-07T14:32:56.148Z,100810.55
2018-11-07T14:35:25.527Z,100811.61
2018-11-07T14:37:55.477Z,100813.36
2018-11-07T14:40:24.662Z,100812.70
2018-11-07T14:42:53.982Z,100812.93
2018-11-07T14:45:23.108Z,100821.05
2018-11-07T14:47:52.503Z,100818.85
2018-11-07T14:50:21.762Z,100818.80
2018-11-07T14:52:50.767Z,100816.18
2018-11-07T14:55:20.423Z,100815.89
2018-11-07T14:57:49.597Z,100825.13
2018-11-07T15:00:19.033Z,100819.19
2018-11-07T15:02:48.333Z,100818.38
2018-11-07T15:05:18.326Z,100822.91
2018-11-07T15:07:47.885Z,100817.67
2018-11-07T15:10:17.782Z,100813.23
2018-11-07T15:12:47.116Z,100819.34
2018-11-07T15:15:17.649Z,100816.09
2018-11-07T15:17:46.874Z,100823.37
2018-11-07T15:20:16.832Z,100826.38
2018-11-07T15:22:45.979Z,100828.36
2018-11-07T15:25:16.212Z,100831.73
2018-11-07T15:27:46.531Z,100826.70
2018-11-07T15:30:16.423Z,100823.88
2018-11-07T15:32:46.063Z,100828.92
2018-11-07T15:35:15.291Z,100828.07
2018-11-07T15:37:44.547Z,100837.33
2018-11-07T15:40:14.913Z,100831.33
2018-11-07T15:42:44.575Z,100828.08
2018-11-07T15:45:15.271Z,100827.88
2018-11-07T15:47:44.968Z,100828.06
2018-11-07T15:50:19.423Z,100837.20
2018-11-07T15:52:49.117Z,100841.17
2018-11-07T15:55:18.791Z,100850.73
2018-11-07T15:57:47.869Z,100853.47
2018-11-07T16:00:18.025Z,100845.09
2018-11-07T16:02:47.201Z,100841.75
2018-11-07T16:05:17.075Z,100837.56
2018-11-07T16:07:46.481Z,100837.41
2018-11-07T16:10:16.286Z,100850.05
2018-11-07T16:12:45.473Z,100846.90
2018-11-07T16:15:16.101Z,100855.13
2018-11-07T16:17:45.504Z,100857.39
2018-11-07T16:20:17.269Z,100853.95
2018-11-07T16:22:47.295Z,100857.03
2018-11-07T16:25:16.465Z,100858.91
2018-11-07T16:27:45.819Z,100856.09
2018-11-07T16:30:16.213Z,100857.48
2018-11-07T16:32:45.508Z,100871.00
2018-11-07T16:35:14.968Z,100867.86
2018-11-07T16:37:44.467Z,100877.83
2018-11-07T16:40:15.895Z,100873.75
2018-11-07T16:42:45.487Z,100880.91
2018-11-07T16:45:15.559Z,100881.30
2018-11-07T16:47:44.925Z,100880.78
2018-11-07T16:50:15.220Z,100891.50
2018-11-07T16:52:45.424Z,100893.69
2018-11-07T16:55:14.639Z,100901.42
2018-11-07T16:57:43.963Z,100894.55
2018-11-07T17:00:18.345Z,100894.11
2018-11-07T17:02:48.041Z,100894.14
2018-11-07T17:05:17.601Z,100897.42
2018-11-07T17:07:47.135Z,100891.95
2018-11-07T17:10:16.519Z,100887.34
2018-11-07T17:12:45.616Z,100888.44
2018-11-07T17:15:14.819Z,100895.28
2018-11-07T17:17:43.987Z,100901.80
2018-11-07T17:20:14.371Z,100901.61
2018-11-07T17:22:43.915Z,100898.89
2018-11-07T17:25:15.260Z,100903.84
2018-11-07T17:27:44.614Z,100897.82
2018-11-07T17:30:14.917Z,100899.16
2018-11-07T17:32:44.219Z,100907.11
2018-11-07T17:35:14.481Z,100909.61
2018-11-07T17:37:44.152Z,100917.77
2018-11-07T17:40:15.265Z,100921.91
2018-11-07T17:42:44.581Z,100911.83
2018-11-07T17:45:15.419Z,100917.88
2018-11-07T17:47:44.838Z,100920.62
2018-11-07T17:50:15.370Z,100921.16
2018-11-07T17:52:44.792Z,100923.63
2018-11-07T17:55:15.106Z,100925.83
2018-11-07T17:57:44.357Z,100936.50
2018-11-07T18:00:15.298Z,100938.94
2018-11-07T18:02:44.545Z,100932.69
2018-11-07T18:05:14.500Z,100931.56
2018-11-07T18:07:43.797Z,100926.09
2018-11-07T18:10:15.558Z,100932.37
2018-11-07T18:12:45.175Z,100928.83
2018-11-07T18:15:14.228Z,100928.58
2018-11-07T18:17:43.451Z,100928.55
2018-11-07T18:20:13.693Z,100936.23
2018-11-07T18:22:42.896Z,100933.73
2018-11-07T18:25:13.200Z,100936.17
2018-11-07T18:27:42.620Z,100932.89
2018-11-07T18:30:13.244Z,100933.73
2018-11-07T18:32:43.088Z,100936.98
2018-11-07T18:35:13.650Z,100931.52
2018-11-07T18:37:42.904Z,100938.88
2018-11-07T18:40:13.456Z,100936.98
2018-11-07T18:42:42.826Z,100942.72
2018-11-07T18:45:12.815Z,100936.97
2018-11-07T18:47:43.020Z,100941.87
2018-11-07T18:50:13.672Z,100947.31
2018-11-07T18:52:43.218Z,100942.40
2018-11-07T18:55:13.441Z,100942.94
2018-11-07T18:57:43.406Z,100941.52
2018-11-07T19:00:14.400Z,100939.63
2018-11-07T19:02:44.748Z,100937.71
2018-11-07T19:05:22.747Z,100944.25
2018-11-07T19:07:51.982Z,100901.58
2018-11-07T19:10:22.080Z,100945.56
2018-11-07T19:12:51.879Z,100946.13
2018-11-07T19:15:21.083Z,100947.47
2018-11-07T19:17:51.046Z,100946.11
2018-11-07T19:20:20.713Z,100950.75
2018-11-07T19:22:49.854Z,100960.84
2018-11-07T19:25:20.472Z,100954.54
2018-11-07T19:27:49.701Z,100953.43
2018-11-07T19:30:20.883Z,100960.30
2018-11-07T19:32:51.012Z,100959.20
2018-11-07T19:35:20.579Z,100963.83
2018-11-07T19:37:50.107Z,100968.42
2018-11-07T19:40:20.976Z,100967.31
2018-11-07T19:42:50.103Z,100967.30
2018-11-07T19:45:20.288Z,100972.41
2018-11-07T19:47:49.874Z,100971.33
2018-11-07T19:50:20.262Z,100975.39
2018-11-07T19:52:50.085Z,100978.66
2018-11-07T19:55:20.646Z,100978.66
2018-11-07T19:57:51.490Z,100967.66
2018-11-07T20:00:20.618Z,100982.44
2018-11-07T20:02:49.914Z,100984.30
2018-11-07T20:07:58.272Z,100992.45
2018-11-07T20:10:34.183Z,100994.96
2018-11-07T20:13:03.424Z,100999.23
2018-11-07T20:15:32.633Z,101002.82
2018-11-07T20:18:02.089Z,101009.60
2018-11-07T20:20:31.332Z,101006.37
2018-11-07T20:23:00.529Z,101005.80
2018-11-07T20:25:29.784Z,101010.92
2018-11-07T20:27:58.987Z,101010.92
2018-11-07T20:30:28.202Z,101016.02
2018-11-07T20:32:57.400Z,101016.30
2018-11-07T20:35:26.650Z,101007.59
2018-11-07T20:37:55.763Z,101015.97
2018-11-07T20:40:25.008Z,101026.83
2018-11-07T20:42:54.059Z,101023.11
2018-11-07T20:45:23.302Z,101022.20
2018-11-07T20:47:52.451Z,101026.00
2018-11-07T20:50:22.171Z,101028.64
2018-11-07T20:52:51.492Z,101025.43
2018-11-07T20:55:20.599Z,101030.34
2018-11-07T20:57:49.756Z,101025.75
2018-11-07T21:00:20.615Z,101032.33
2018-11-07T21:02:50.435Z,101034.39
2018-11-07T21:05:19.674Z,101037.45
2018-11-07T21:07:48.907Z,101033.70
2018-11-07T21:10:20.228Z,101030.98
2018-11-07T21:12:51.123Z,101033.17
2018-11-07T21:15:21.493Z,101036.67
2018-11-07T21:17:50.990Z,101041.20
2018-11-07T21:20:20.894Z,101042.66
2018-11-07T21:22:53.135Z,101043.39
2018-11-07T21:25:25.222Z,101050.19
2018-11-07T21:27:56.543Z,101057.05
2018-11-07T21:30:25.651Z,101065.76
2018-11-07T21:32:54.995Z,101058.13
2018-11-07T21:35:25.348Z,101059.20
2018-11-07T21:37:59.264Z,101060.08
2018-11-07T21:40:29.511Z,101064.34
2018-11-07T21:43:00.650Z,101060.20
2018-11-07T21:45:30.692Z,101060.69
2018-11-07T21:48:00.117Z,101063.95
2018-11-07T21:50:29.578Z,101064.05
2018-11-07T21:53:00.639Z,101061.52
2018-11-07T21:55:30.573Z,101061.11
2018-11-07T21:58:00.302Z,101068.62
2018-11-07T22:00:29.576Z,101067.39
2018-11-07T22:02:58.982Z,101070.52
2018-11-07T22:05:28.785Z,101068.38
2018-11-07T22:07:58.052Z,101074.20
2018-11-07T22:10:27.824Z,101072.55
2018-11-07T22:12:57.686Z,101075.01
2018-11-07T22:15:27.231Z,101071.94
2018-11-07T22:17:56.503Z,101073.83
2018-11-07T22:20:26.112Z,101071.34
2018-11-07T22:22:55.710Z,101067.69
2018-11-07T22:25:24.958Z,101071.38
2018-11-07T22:27:54.675Z,101070.47
2018-11-07T22:30:23.743Z,101069.05
2018-11-07T22:32:53.108Z,101070.94
2018-11-07T22:35:22.724Z,101075.67
2018-11-07T22:37:51.771Z,101080.38
2018-11-07T22:40:21.046Z,101080.95
2018-11-07T22:42:50.376Z,101083.92
2018-11-07T22:45:19.675Z,101088.52
2018-11-07T22:47:50.403Z,101082.55
2018-11-07T22:50:20.146Z,101099.92
2018-11-07T22:52:50.320Z,101091.26
2018-11-07T22:55:19.891Z,101100.72
2018-11-07T22:57:52.277Z,101105.73
2018-11-07T23:00:26.969Z,101098.45
2018-11-07T23:02:56.770Z,101096.28
2018-11-07T23:05:26.244Z,101099.00
2018-11-07T23:07:56.608Z,101103.67
2018-11-07T23:10:25.968Z,101103.42
2018-11-07T23:12:55.365Z,101103.15
2018-11-07T23:15:30.408Z,101107.50
2018-11-07T23:17:59.868Z,101102.89
2018-11-07T23:20:29.289Z,101097.19
2018-11-07T23:22:58.700Z,101099.84
2018-11-07T23:25:28.091Z,101104.35
2018-11-07T23:27:57.808Z,101118.87
2018-11-07T23:30:26.994Z,101112.19
2018-11-07T23:32:56.538Z,101110.05
2018-11-07T23:35:26.788Z,101110.99
2018-11-07T23:37:56.705Z,101116.27
2018-11-07T23:40:26.554Z,101118.45
2018-11-07T23:42:56.093Z,101116.45
2018-11-07T23:45:25.240Z,101116.69
2018-11-07T23:47:54.811Z,101117.27
2018-11-07T23:50:24.456Z,101119.99
2018-11-07T23:52:54.454Z,101128.93
2018-11-07T23:55:24.947Z,101122.72
2018-11-07T23:57:54.745Z,101130.05
